sensor_id;sensor_type;location;lat;lon;timestamp;P1;durP1;ratioP1;P2;durP2;ratioP2
13967;SDS011;39536;52.198;9.920;2022-12-31T00:00:07;0.40;;;0.40;;
13967;SDS011;39536;52.198;9.920;2022-12-31T00:02:34;0.30;;;0.30;;
13967;SDS011;39536;52.198;9.920;2022-12-31T00:05:00;0.27;;;0.27;;
13967;SDS011;39536;52.198;9.920;2022-12-31T00:07:28;0.93;;;0.63;;
13967;SDS011;39536;52.198;9.920;2022-12-31T00:09:55;0.60;;;0.60;;
13967;SDS011;39536;52.198;9.920;2022-12-31T00:12:21;0.50;;;0.50;;
13967;SDS011;39536;52.198;9.920;2022-12-31T00:14:48;0.33;;;0.33;;
13967;SDS011;39536;52.198;9.920;2022-12-31T00:17:15;0.30;;;0.30;;
13967;SDS011;39536;52.198;9.920;2022-12-31T00:19:41;0.40;;;0.40;;
13967;SDS011;39536;52.198;9.920;2022-12-31T00:22:08;0.33;;;0.33;;
13967;SDS011;39536;52.198;9.920;2022-12-31T00:24:35;0.47;;;0.47;;
13967;SDS011;39536;52.198;9.920;2022-12-31T00:27:02;0.33;;;0.33;;
13967;SDS011;39536;52.198;9.920;2022-12-31T00:29:28;0.60;;;0.60;;
13967;SDS011;39536;52.198;9.920;2022-12-31T00:31:55;1.90;;;0.50;;
13967;SDS011;39536;52.198;9.920;2022-12-31T00:34:21;0.40;;;0.40;;
13967;SDS011;39536;52.198;9.920;2022-12-31T00:36:48;0.40;;;0.40;;
13967;SDS011;39536;52.198;9.920;2022-12-31T00:39:14;0.40;;;0.40;;
13967;SDS011;39536;52.198;9.920;2022-12-31T00:41:42;0.30;;;0.30;;
13967;SDS011;39536;52.198;9.920;2022-12-31T00:44:10;0.43;;;0.43;;
13967;SDS011;39536;52.198;9.920;2022-12-31T00:46:37;0.60;;;0.47;;
13967;SDS011;39536;52.198;9.920;2022-12-31T00:49:03;0.90;;;0.50;;
13967;SDS011;39536;52.198;9.920;2022-12-31T00:51:30;0.37;;;0.30;;
13967;SDS011;39536;52.198;9.920;2022-12-31T00:53:56;0.50;;;0.50;;
13967;SDS011;39536;52.198;9.920;2022-12-31T00:56:24;0.33;;;0.33;;
13967;SDS011;39536;52.198;9.920;2022-12-31T00:58:53;0.30;;;0.30;;
13967;SDS011;39536;52.198;9.920;2022-12-31T01:01:20;0.40;;;0.40;;
13967;SDS011;39536;52.198;9.920;2022-12-31T01:03:49;0.60;;;0.60;;
13967;SDS011;39536;52.198;9.920;2022-12-31T01:06:17;0.67;;;0.67;;
13967;SDS011;39536;52.198;9.920;2022-12-31T01:08:44;0.50;;;0.50;;
13967;SDS011;39536;52.198;9.920;2022-12-31T01:11:13;0.60;;;0.60;;
13967;SDS011;39536;52.198;9.920;2022-12-31T01:13:47;0.70;;;0.70;;
13967;SDS011;39536;52.198;9.920;2022-12-31T01:16:16;0.57;;;0.57;;
13967;SDS011;39536;52.198;9.920;2022-12-31T01:18:44;0.67;;;0.60;;
13967;SDS011;39536;52.198;9.920;2022-12-31T01:21:11;0.40;;;0.40;;
13967;SDS011;39536;52.198;9.920;2022-12-31T01:23:38;0.80;;;0.50;;
13967;SDS011;39536;52.198;9.920;2022-12-31T01:26:06;0.63;;;0.63;;
13967;SDS011;39536;52.198;9.920;2022-12-31T01:28:34;0.40;;;0.40;;
13967;SDS011;39536;52.198;9.920;2022-12-31T01:31:02;5.77;;;0.67;;
13967;SDS011;39536;52.198;9.920;2022-12-31T01:33:31;0.37;;;0.37;;
13967;SDS011;39536;52.198;9.920;2022-12-31T01:36:00;0.53;;;0.53;;
13967;SDS011;39536;52.198;9.920;2022-12-31T01:38:27;0.50;;;0.50;;
13967;SDS011;39536;52.198;9.920;2022-12-31T01:40:53;0.53;;;0.40;;
13967;SDS011;39536;52.198;9.920;2022-12-31T01:43:20;1.43;;;0.50;;
13967;SDS011;39536;52.198;9.920;2022-12-31T01:45:48;0.87;;;0.70;;
13967;SDS011;39536;52.198;9.920;2022-12-31T01:48:19;0.40;;;0.40;;
13967;SDS011;39536;52.198;9.920;2022-12-31T01:50:50;0.30;;;0.30;;
13967;SDS011;39536;52.198;9.920;2022-12-31T01:53:18;0.40;;;0.40;;
13967;SDS011;39536;52.198;9.920;2022-12-31T01:55:47;0.90;;;0.40;;
13967;SDS011;39536;52.198;9.920;2022-12-31T01:58:17;1.07;;;0.30;;
13967;SDS011;39536;52.198;9.920;2022-12-31T02:00:47;0.70;;;0.30;;
13967;SDS011;39536;52.198;9.920;2022-12-31T02:03:16;0.30;;;0.30;;
13967;SDS011;39536;52.198;9.920;2022-12-31T02:05:44;0.40;;;0.40;;
13967;SDS011;39536;52.198;9.920;2022-12-31T02:08:16;1.23;;;0.40;;
13967;SDS011;39536;52.198;9.920;2022-12-31T02:10:43;1.07;;;0.50;;
13967;SDS011;39536;52.198;9.920;2022-12-31T02:13:09;0.40;;;0.40;;
13967;SDS011;39536;52.198;9.920;2022-12-31T02:15:38;1.13;;;0.50;;
13967;SDS011;39536;52.198;9.920;2022-12-31T02:18:14;0.47;;;0.47;;
13967;SDS011;39536;52.198;9.920;2022-12-31T02:23:51;0.30;;;0.30;;
13967;SDS011;39536;52.198;9.920;2022-12-31T02:26:36;0.67;;;0.50;;
13967;SDS011;39536;52.198;9.920;2022-12-31T02:32:16;0.50;;;0.50;;
13967;SDS011;39536;52.198;9.920;2022-12-31T02:34:49;0.30;;;0.30;;
13967;SDS011;39536;52.198;9.920;2022-12-31T02:37:20;0.40;;;0.40;;
13967;SDS011;39536;52.198;9.920;2022-12-31T02:39:49;0.40;;;0.40;;
13967;SDS011;39536;52.198;9.920;2022-12-31T02:42:16;1.43;;;0.40;;
13967;SDS011;39536;52.198;9.920;2022-12-31T02:44:43;0.30;;;0.30;;
13967;SDS011;39536;52.198;9.920;2022-12-31T02:47:15;0.50;;;0.50;;
13967;SDS011;39536;52.198;9.920;2022-12-31T02:49:51;0.60;;;0.60;;
13967;SDS011;39536;52.198;9.920;2022-12-31T02:52:31;0.50;;;0.50;;
13967;SDS011;39536;52.198;9.920;2022-12-31T02:55:08;0.60;;;0.60;;
13967;SDS011;39536;52.198;9.920;2022-12-31T02:57:43;0.50;;;0.50;;
13967;SDS011;39536;52.198;9.920;2022-12-31T03:00:18;0.60;;;0.60;;
13967;SDS011;39536;52.198;9.920;2022-12-31T03:03:04;0.53;;;0.53;;
13967;SDS011;39536;52.198;9.920;2022-12-31T03:05:33;0.80;;;0.80;;
13967;SDS011;39536;52.198;9.920;2022-12-31T03:08:04;0.50;;;0.50;;
13967;SDS011;39536;52.198;9.920;2022-12-31T03:10:30;0.60;;;0.60;;
13967;SDS011;39536;52.198;9.920;2022-12-31T03:12:57;0.50;;;0.50;;
13967;SDS011;39536;52.198;9.920;2022-12-31T03:15:23;0.70;;;0.70;;
13967;SDS011;39536;52.198;9.920;2022-12-31T03:17:52;0.70;;;0.70;;
13967;SDS011;39536;52.198;9.920;2022-12-31T03:20:23;0.47;;;0.40;;
13967;SDS011;39536;52.198;9.920;2022-12-31T03:23:10;0.43;;;0.43;;
13967;SDS011;39536;52.198;9.920;2022-12-31T03:25:42;0.67;;;0.40;;
13967;SDS011;39536;52.198;9.920;2022-12-31T03:28:08;0.50;;;0.50;;
13967;SDS011;39536;52.198;9.920;2022-12-31T03:30:37;0.63;;;0.50;;
13967;SDS011;39536;52.198;9.920;2022-12-31T03:33:05;0.80;;;0.80;;
13967;SDS011;39536;52.198;9.920;2022-12-31T03:35:34;3.50;;;0.80;;
13967;SDS011;39536;52.198;9.920;2022-12-31T03:38:02;1.10;;;1.00;;
13967;SDS011;39536;52.198;9.920;2022-12-31T03:40:30;0.80;;;0.80;;
13967;SDS011;39536;52.198;9.920;2022-12-31T03:42:58;0.97;;;0.67;;
13967;SDS011;39536;52.198;9.920;2022-12-31T03:45:24;0.70;;;0.70;;
13967;SDS011;39536;52.198;9.920;2022-12-31T03:47:51;0.80;;;0.80;;
13967;SDS011;39536;52.198;9.920;2022-12-31T03:50:18;1.20;;;0.70;;
13967;SDS011;39536;52.198;9.920;2022-12-31T03:52:46;0.73;;;0.73;;
13967;SDS011;39536;52.198;9.920;2022-12-31T03:55:13;0.60;;;0.60;;
13967;SDS011;39536;52.198;9.920;2022-12-31T03:57:40;0.80;;;0.80;;
13967;SDS011;39536;52.198;9.920;2022-12-31T04:00:07;0.63;;;0.63;;
13967;SDS011;39536;52.198;9.920;2022-12-31T04:02:37;0.80;;;0.80;;
13967;SDS011;39536;52.198;9.920;2022-12-31T04:05:04;0.87;;;0.70;;
13967;SDS011;39536;52.198;9.920;2022-12-31T04:07:31;0.60;;;0.50;;
13967;SDS011;39536;52.198;9.920;2022-12-31T04:09:59;0.63;;;0.63;;
13967;SDS011;39536;52.198;9.920;2022-12-31T04:12:25;0.50;;;0.50;;
13967;SDS011;39536;52.198;9.920;2022-12-31T04:14:52;0.23;;;0.23;;
13967;SDS011;39536;52.198;9.920;2022-12-31T04:17:18;0.37;;;0.37;;
13967;SDS011;39536;52.198;9.920;2022-12-31T04:19:44;0.37;;;0.37;;
13967;SDS011;39536;52.198;9.920;2022-12-31T04:22:11;0.23;;;0.23;;
13967;SDS011;39536;52.198;9.920;2022-12-31T04:24:37;0.10;;;0.10;;
13967;SDS011;39536;52.198;9.920;2022-12-31T04:27:05;0.20;;;0.20;;
13967;SDS011;39536;52.198;9.920;2022-12-31T04:29:31;0.20;;;0.20;;
13967;SDS011;39536;52.198;9.920;2022-12-31T04:31:58;0.63;;;0.10;;
13967;SDS011;39536;52.198;9.920;2022-12-31T04:34:24;0.10;;;0.10;;
13967;SDS011;39536;52.198;9.920;2022-12-31T04:36:51;0.10;;;0.10;;
13967;SDS011;39536;52.198;9.920;2022-12-31T04:39:17;0.10;;;0.10;;
13967;SDS011;39536;52.198;9.920;2022-12-31T04:41:44;0.83;;;0.10;;
13967;SDS011;39536;52.198;9.920;2022-12-31T04:44:11;0.17;;;0.10;;
13967;SDS011;39536;52.198;9.920;2022-12-31T04:46:38;0.00;;;0.00;;
13967;SDS011;39536;52.198;9.920;2022-12-31T04:49:04;0.03;;;0.03;;
13967;SDS011;39536;52.198;9.920;2022-12-31T04:51:31;0.10;;;0.10;;
13967;SDS011;39536;52.198;9.920;2022-12-31T04:53:58;0.10;;;0.10;;
13967;SDS011;39536;52.198;9.920;2022-12-31T04:56:25;0.33;;;0.00;;
13967;SDS011;39536;52.198;9.920;2022-12-31T04:58:52;0.10;;;0.10;;
13967;SDS011;39536;52.198;9.920;2022-12-31T05:01:20;0.00;;;0.00;;
13967;SDS011;39536;52.198;9.920;2022-12-31T05:03:47;0.10;;;0.10;;
13967;SDS011;39536;52.198;9.920;2022-12-31T05:06:15;0.07;;;0.07;;
13967;SDS011;39536;52.198;9.920;2022-12-31T05:08:43;0.47;;;0.10;;
13967;SDS011;39536;52.198;9.920;2022-12-31T05:11:10;0.53;;;0.00;;
13967;SDS011;39536;52.198;9.920;2022-12-31T05:13:38;0.40;;;0.17;;
13967;SDS011;39536;52.198;9.920;2022-12-31T05:16:05;0.00;;;0.00;;
13967;SDS011;39536;52.198;9.920;2022-12-31T05:18:34;0.00;;;0.00;;
13967;SDS011;39536;52.198;9.920;2022-12-31T05:21:01;0.10;;;0.10;;
13967;SDS011;39536;52.198;9.920;2022-12-31T05:23:27;0.13;;;0.00;;
13967;SDS011;39536;52.198;9.920;2022-12-31T05:25:54;0.10;;;0.10;;
13967;SDS011;39536;52.198;9.920;2022-12-31T05:28:20;0.00;;;0.00;;
13967;SDS011;39536;52.198;9.920;2022-12-31T05:30:47;0.03;;;0.03;;
13967;SDS011;39536;52.198;9.920;2022-12-31T05:33:15;0.20;;;0.20;;
13967;SDS011;39536;52.198;9.920;2022-12-31T05:35:43;0.27;;;0.10;;
13967;SDS011;39536;52.198;9.920;2022-12-31T05:38:09;0.20;;;0.20;;
13967;SDS011;39536;52.198;9.920;2022-12-31T05:40:36;0.10;;;0.10;;
13967;SDS011;39536;52.198;9.920;2022-12-31T05:43:02;0.43;;;0.20;;
13967;SDS011;39536;52.198;9.920;2022-12-31T05:45:29;0.20;;;0.20;;
13967;SDS011;39536;52.198;9.920;2022-12-31T05:47:55;0.20;;;0.20;;
13967;SDS011;39536;52.198;9.920;2022-12-31T05:50:22;0.40;;;0.30;;
13967;SDS011;39536;52.198;9.920;2022-12-31T05:52:49;0.20;;;0.20;;
13967;SDS011;39536;52.198;9.920;2022-12-31T05:55:16;0.20;;;0.20;;
13967;SDS011;39536;52.198;9.920;2022-12-31T05:57:43;0.47;;;0.40;;
13967;SDS011;39536;52.198;9.920;2022-12-31T06:00:10;0.73;;;0.67;;
13967;SDS011;39536;52.198;9.920;2022-12-31T06:02:37;0.47;;;0.40;;
13967;SDS011;39536;52.198;9.920;2022-12-31T06:05:03;0.70;;;0.70;;
13967;SDS011;39536;52.198;9.920;2022-12-31T06:07:30;0.40;;;0.40;;
13967;SDS011;39536;52.198;9.920;2022-12-31T06:09:58;0.40;;;0.40;;
13967;SDS011;39536;52.198;9.920;2022-12-31T06:12:25;0.60;;;0.60;;
13967;SDS011;39536;52.198;9.920;2022-12-31T06:14:51;0.60;;;0.60;;
13967;SDS011;39536;52.198;9.920;2022-12-31T06:17:17;0.40;;;0.37;;
13967;SDS011;39536;52.198;9.920;2022-12-31T06:19:46;0.80;;;0.80;;
13967;SDS011;39536;52.198;9.920;2022-12-31T06:22:12;1.40;;;0.40;;
13967;SDS011;39536;52.198;9.920;2022-12-31T06:24:39;0.90;;;0.90;;
13967;SDS011;39536;52.198;9.920;2022-12-31T06:27:07;1.50;;;1.40;;
13967;SDS011;39536;52.198;9.920;2022-12-31T06:29:34;1.40;;;1.30;;
13967;SDS011;39536;52.198;9.920;2022-12-31T06:32:00;0.83;;;0.83;;
13967;SDS011;39536;52.198;9.920;2022-12-31T06:34:27;0.70;;;0.70;;
13967;SDS011;39536;52.198;9.920;2022-12-31T06:36:53;0.43;;;0.40;;
13967;SDS011;39536;52.198;9.920;2022-12-31T06:39:20;0.93;;;0.50;;
13967;SDS011;39536;52.198;9.920;2022-12-31T06:41:46;1.13;;;0.40;;
13967;SDS011;39536;52.198;9.920;2022-12-31T06:44:14;0.97;;;0.50;;
13967;SDS011;39536;52.198;9.920;2022-12-31T06:46:41;0.30;;;0.30;;
13967;SDS011;39536;52.198;9.920;2022-12-31T06:49:07;2.23;;;0.33;;
13967;SDS011;39536;52.198;9.920;2022-12-31T06:51:34;0.10;;;0.10;;
13967;SDS011;39536;52.198;9.920;2022-12-31T06:54:00;0.00;;;0.00;;
13967;SDS011;39536;52.198;9.920;2022-12-31T06:56:27;0.20;;;0.20;;
13967;SDS011;39536;52.198;9.920;2022-12-31T06:58:54;0.10;;;0.00;;
13967;SDS011;39536;52.198;9.920;2022-12-31T07:04:26;0.20;;;0.10;;
13967;SDS011;39536;52.198;9.920;2022-12-31T07:07:12;0.07;;;0.07;;
13967;SDS011;39536;52.198;9.920;2022-12-31T07:09:48;0.10;;;0.10;;
13967;SDS011;39536;52.198;9.920;2022-12-31T07:12:29;0.20;;;0.20;;
13967;SDS011;39536;52.198;9.920;2022-12-31T07:15:04;0.10;;;0.10;;
13967;SDS011;39536;52.198;9.920;2022-12-31T07:17:37;0.77;;;0.20;;
13967;SDS011;39536;52.198;9.920;2022-12-31T07:20:13;0.10;;;0.10;;
13967;SDS011;39536;52.198;9.920;2022-12-31T07:22:41;0.30;;;0.20;;
13967;SDS011;39536;52.198;9.920;2022-12-31T07:25:11;0.50;;;0.20;;
13967;SDS011;39536;52.198;9.920;2022-12-31T07:27:44;0.20;;;0.20;;
13967;SDS011;39536;52.198;9.920;2022-12-31T07:30:21;0.40;;;0.30;;
13967;SDS011;39536;52.198;9.920;2022-12-31T07:32:59;1.30;;;0.27;;
13967;SDS011;39536;52.198;9.920;2022-12-31T07:35:38;0.10;;;0.10;;
13967;SDS011;39536;52.198;9.920;2022-12-31T07:38:15;0.20;;;0.20;;
13967;SDS011;39536;52.198;9.920;2022-12-31T07:40:52;0.20;;;0.20;;
13967;SDS011;39536;52.198;9.920;2022-12-31T07:43:27;0.27;;;0.27;;
13967;SDS011;39536;52.198;9.920;2022-12-31T07:46:02;0.40;;;0.20;;
13967;SDS011;39536;52.198;9.920;2022-12-31T07:48:38;0.10;;;0.10;;
13967;SDS011;39536;52.198;9.920;2022-12-31T07:51:05;0.20;;;0.10;;
13967;SDS011;39536;52.198;9.920;2022-12-31T07:53:34;0.20;;;0.20;;
13967;SDS011;39536;52.198;9.920;2022-12-31T07:56:02;0.10;;;0.10;;
13967;SDS011;39536;52.198;9.920;2022-12-31T07:58:31;0.30;;;0.30;;
13967;SDS011;39536;52.198;9.920;2022-12-31T08:01:12;0.10;;;0.10;;
13967;SDS011;39536;52.198;9.920;2022-12-31T08:03:46;0.37;;;0.20;;
13967;SDS011;39536;52.198;9.920;2022-12-31T08:06:22;0.10;;;0.10;;
13967;SDS011;39536;52.198;9.920;2022-12-31T08:09:01;0.33;;;0.33;;
13967;SDS011;39536;52.198;9.920;2022-12-31T08:11:34;0.30;;;0.30;;
13967;SDS011;39536;52.198;9.920;2022-12-31T08:14:07;1.23;;;0.40;;
13967;SDS011;39536;52.198;9.920;2022-12-31T08:16:35;0.20;;;0.20;;
13967;SDS011;39536;52.198;9.920;2022-12-31T08:19:04;0.50;;;0.30;;
13967;SDS011;39536;52.198;9.920;2022-12-31T08:21:34;0.50;;;0.20;;
13967;SDS011;39536;52.198;9.920;2022-12-31T08:24:12;0.33;;;0.33;;
13967;SDS011;39536;52.198;9.920;2022-12-31T08:26:51;0.87;;;0.27;;
13967;SDS011;39536;52.198;9.920;2022-12-31T08:29:28;0.33;;;0.20;;
13967;SDS011;39536;52.198;9.920;2022-12-31T08:32:02;0.60;;;0.30;;
13967;SDS011;39536;52.198;9.920;2022-12-31T08:34:43;0.17;;;0.17;;
13967;SDS011;39536;52.198;9.920;2022-12-31T08:37:18;0.53;;;0.33;;
13967;SDS011;39536;52.198;9.920;2022-12-31T08:39:58;0.97;;;0.20;;
13967;SDS011;39536;52.198;9.920;2022-12-31T08:42:40;0.20;;;0.20;;
13967;SDS011;39536;52.198;9.920;2022-12-31T08:45:18;0.43;;;0.30;;
13967;SDS011;39536;52.198;9.920;2022-12-31T08:47:54;0.70;;;0.50;;
13967;SDS011;39536;52.198;9.920;2022-12-31T08:50:28;0.80;;;0.50;;
13967;SDS011;39536;52.198;9.920;2022-12-31T08:52:55;0.30;;;0.30;;
13967;SDS011;39536;52.198;9.920;2022-12-31T08:55:22;0.37;;;0.30;;
13967;SDS011;39536;52.198;9.920;2022-12-31T08:57:52;1.13;;;0.40;;
13967;SDS011;39536;52.198;9.920;2022-12-31T09:00:29;0.77;;;0.40;;
13967;SDS011;39536;52.198;9.920;2022-12-31T09:03:06;0.50;;;0.40;;
13967;SDS011;39536;52.198;9.920;2022-12-31T09:05:53;1.03;;;0.30;;
13967;SDS011;39536;52.198;9.920;2022-12-31T09:08:28;0.47;;;0.47;;
13967;SDS011;39536;52.198;9.920;2022-12-31T09:11:03;0.73;;;0.53;;
13967;SDS011;39536;52.198;9.920;2022-12-31T09:13:47;0.40;;;0.30;;
13967;SDS011;39536;52.198;9.920;2022-12-31T09:16:31;0.93;;;0.40;;
13967;SDS011;39536;52.198;9.920;2022-12-31T09:22:27;0.30;;;0.30;;
13967;SDS011;39536;52.198;9.920;2022-12-31T09:24:54;0.43;;;0.40;;
13967;SDS011;39536;52.198;9.920;2022-12-31T09:27:21;0.40;;;0.40;;
13967;SDS011;39536;52.198;9.920;2022-12-31T09:29:54;3.93;;;0.67;;
13967;SDS011;39536;52.198;9.920;2022-12-31T09:32:29;0.67;;;0.67;;
13967;SDS011;39536;52.198;9.920;2022-12-31T09:35:03;1.43;;;0.40;;
13967;SDS011;39536;52.198;9.920;2022-12-31T09:37:41;0.40;;;0.30;;
13967;SDS011;39536;52.198;9.920;2022-12-31T09:43:20;0.30;;;0.20;;
13967;SDS011;39536;52.198;9.920;2022-12-31T09:46:17;0.43;;;0.43;;
13967;SDS011;39536;52.198;9.920;2022-12-31T09:52:14;0.63;;;0.40;;
13967;SDS011;39536;52.198;9.920;2022-12-31T09:54:52;0.43;;;0.33;;
13967;SDS011;39536;52.198;9.920;2022-12-31T09:57:40;0.20;;;0.20;;
13967;SDS011;39536;52.198;9.920;2022-12-31T10:00:19;1.50;;;0.50;;
13967;SDS011;39536;52.198;9.920;2022-12-31T10:03:06;1.07;;;0.50;;
13967;SDS011;39536;52.198;9.920;2022-12-31T10:05:52;1.40;;;0.37;;
13967;SDS011;39536;52.198;9.920;2022-12-31T10:08:39;0.50;;;0.40;;
13967;SDS011;39536;52.198;9.920;2022-12-31T10:11:21;1.10;;;0.67;;
13967;SDS011;39536;52.198;9.920;2022-12-31T10:14:00;1.13;;;0.40;;
13967;SDS011;39536;52.198;9.920;2022-12-31T10:16:50;0.63;;;0.30;;
13967;SDS011;39536;52.198;9.920;2022-12-31T10:22:37;0.77;;;0.40;;
13967;SDS011;39536;52.198;9.920;2022-12-31T10:25:34;1.17;;;0.20;;
13967;SDS011;39536;52.198;9.920;2022-12-31T10:28:14;3.00;;;1.50;;
13967;SDS011;39536;52.198;9.920;2022-12-31T10:30:56;0.30;;;0.30;;
13967;SDS011;39536;52.198;9.920;2022-12-31T10:33:40;0.50;;;0.27;;
13967;SDS011;39536;52.198;9.920;2022-12-31T10:36:12;1.27;;;0.43;;
13967;SDS011;39536;52.198;9.920;2022-12-31T10:38:47;4.47;;;0.57;;
13967;SDS011;39536;52.198;9.920;2022-12-31T10:41:43;0.57;;;0.37;;
13967;SDS011;39536;52.198;9.920;2022-12-31T10:44:32;0.40;;;0.27;;
13967;SDS011;39536;52.198;9.920;2022-12-31T10:47:18;0.47;;;0.43;;
13967;SDS011;39536;52.198;9.920;2022-12-31T10:50:14;0.40;;;0.40;;
13967;SDS011;39536;52.198;9.920;2022-12-31T11:12:30;0.67;;;0.40;;
13967;SDS011;39536;52.198;9.920;2022-12-31T11:15:44;0.50;;;0.40;;
13967;SDS011;39536;52.198;9.920;2022-12-31T11:18:26;0.20;;;0.20;;
13967;SDS011;39536;52.198;9.920;2022-12-31T11:21:03;0.30;;;0.30;;
13967;SDS011;39536;52.198;9.920;2022-12-31T11:23:42;1.03;;;0.60;;
13967;SDS011;39536;52.198;9.920;2022-12-31T11:26:19;1.67;;;0.50;;
13967;SDS011;39536;52.198;9.920;2022-12-31T11:29:02;0.73;;;0.60;;
13967;SDS011;39536;52.198;9.920;2022-12-31T11:31:49;0.43;;;0.37;;
13967;SDS011;39536;52.198;9.920;2022-12-31T11:34:41;0.30;;;0.30;;
13967;SDS011;39536;52.198;9.920;2022-12-31T11:37:27;1.33;;;0.63;;
13967;SDS011;39536;52.198;9.920;2022-12-31T11:40:02;1.50;;;0.37;;
13967;SDS011;39536;52.198;9.920;2022-12-31T11:42:47;0.63;;;0.57;;
13967;SDS011;39536;52.198;9.920;2022-12-31T11:45:21;1.80;;;0.27;;
13967;SDS011;39536;52.198;9.920;2022-12-31T11:48:03;0.63;;;0.40;;
13967;SDS011;39536;52.198;9.920;2022-12-31T11:50:41;1.90;;;0.40;;
13967;SDS011;39536;52.198;9.920;2022-12-31T11:53:21;0.67;;;0.60;;
13967;SDS011;39536;52.198;9.920;2022-12-31T11:56:00;1.17;;;0.67;;
13967;SDS011;39536;52.198;9.920;2022-12-31T11:58:36;1.13;;;0.67;;
13967;SDS011;39536;52.198;9.920;2022-12-31T12:01:05;0.50;;;0.50;;
13967;SDS011;39536;52.198;9.920;2022-12-31T12:03:35;0.93;;;0.67;;
13967;SDS011;39536;52.198;9.920;2022-12-31T12:06:07;1.90;;;0.67;;
13967;SDS011;39536;52.198;9.920;2022-12-31T12:08:38;1.30;;;0.70;;
13967;SDS011;39536;52.198;9.920;2022-12-31T12:11:06;0.70;;;0.40;;
13967;SDS011;39536;52.198;9.920;2022-12-31T12:13:38;1.20;;;0.80;;
13967;SDS011;39536;52.198;9.920;2022-12-31T12:16:05;1.20;;;0.77;;
13967;SDS011;39536;52.198;9.920;2022-12-31T12:18:33;2.13;;;0.67;;
13967;SDS011;39536;52.198;9.920;2022-12-31T12:21:04;2.40;;;1.00;;
13967;SDS011;39536;52.198;9.920;2022-12-31T12:23:35;0.77;;;0.60;;
13967;SDS011;39536;52.198;9.920;2022-12-31T12:26:03;0.50;;;0.50;;
13967;SDS011;39536;52.198;9.920;2022-12-31T12:28:39;1.83;;;0.70;;
13967;SDS011;39536;52.198;9.920;2022-12-31T12:31:15;2.67;;;0.70;;
13967;SDS011;39536;52.198;9.920;2022-12-31T12:33:45;1.23;;;1.03;;
13967;SDS011;39536;52.198;9.920;2022-12-31T12:36:13;0.40;;;0.40;;
13967;SDS011;39536;52.198;9.920;2022-12-31T12:38:42;0.73;;;0.63;;
13967;SDS011;39536;52.198;9.920;2022-12-31T12:41:11;0.67;;;0.63;;
13967;SDS011;39536;52.198;9.920;2022-12-31T12:43:44;0.53;;;0.53;;
13967;SDS011;39536;52.198;9.920;2022-12-31T12:46:17;1.07;;;0.70;;
13967;SDS011;39536;52.198;9.920;2022-12-31T12:48:46;2.70;;;0.87;;
13967;SDS011;39536;52.198;9.920;2022-12-31T12:51:21;0.50;;;0.50;;
13967;SDS011;39536;52.198;9.920;2022-12-31T12:53:59;0.87;;;0.60;;
13967;SDS011;39536;52.198;9.920;2022-12-31T12:56:36;0.93;;;0.60;;
13967;SDS011;39536;52.198;9.920;2022-12-31T13:02:11;3.83;;;1.00;;
13967;SDS011;39536;52.198;9.920;2022-12-31T13:04:55;0.77;;;0.60;;
13967;SDS011;39536;52.198;9.920;2022-12-31T13:07:37;0.70;;;0.60;;
13967;SDS011;39536;52.198;9.920;2022-12-31T13:10:28;0.60;;;0.60;;
13967;SDS011;39536;52.198;9.920;2022-12-31T13:13:10;0.67;;;0.57;;
13967;SDS011;39536;52.198;9.920;2022-12-31T13:15:44;0.60;;;0.60;;
13967;SDS011;39536;52.198;9.920;2022-12-31T13:18:21;1.60;;;0.83;;
13967;SDS011;39536;52.198;9.920;2022-12-31T13:20:58;1.80;;;0.60;;
13967;SDS011;39536;52.198;9.920;2022-12-31T13:23:33;0.77;;;0.60;;
13967;SDS011;39536;52.198;9.920;2022-12-31T13:26:07;1.57;;;0.57;;
13967;SDS011;39536;52.198;9.920;2022-12-31T13:28:40;0.83;;;0.70;;
13967;SDS011;39536;52.198;9.920;2022-12-31T13:31:09;0.60;;;0.60;;
13967;SDS011;39536;52.198;9.920;2022-12-31T13:33:41;1.43;;;0.97;;
13967;SDS011;39536;52.198;9.920;2022-12-31T13:36:12;0.60;;;0.60;;
13967;SDS011;39536;52.198;9.920;2022-12-31T13:38:42;1.63;;;0.83;;
13967;SDS011;39536;52.198;9.920;2022-12-31T13:41:12;0.60;;;0.60;;
13967;SDS011;39536;52.198;9.920;2022-12-31T13:43:45;0.97;;;0.80;;
13967;SDS011;39536;52.198;9.920;2022-12-31T13:46:16;1.23;;;0.90;;
13967;SDS011;39536;52.198;9.920;2022-12-31T13:48:49;1.97;;;0.80;;
13967;SDS011;39536;52.198;9.920;2022-12-31T13:51:40;0.87;;;0.60;;
13967;SDS011;39536;52.198;9.920;2022-12-31T13:54:13;1.53;;;0.70;;
13967;SDS011;39536;52.198;9.920;2022-12-31T13:56:49;0.83;;;0.70;;
13967;SDS011;39536;52.198;9.920;2022-12-31T13:59:19;0.60;;;0.60;;
13967;SDS011;39536;52.198;9.920;2022-12-31T14:01:50;0.80;;;0.50;;
13967;SDS011;39536;52.198;9.920;2022-12-31T14:04:23;1.97;;;0.97;;
13967;SDS011;39536;52.198;9.920;2022-12-31T14:06:53;1.13;;;0.57;;
13967;SDS011;39536;52.198;9.920;2022-12-31T14:09:25;0.93;;;0.63;;
13967;SDS011;39536;52.198;9.920;2022-12-31T14:11:58;2.10;;;1.10;;
13967;SDS011;39536;52.198;9.920;2022-12-31T14:14:38;0.70;;;0.70;;
13967;SDS011;39536;52.198;9.920;2022-12-31T14:17:13;1.50;;;0.70;;
13967;SDS011;39536;52.198;9.920;2022-12-31T14:19:50;0.77;;;0.50;;
13967;SDS011;39536;52.198;9.920;2022-12-31T14:22:23;2.00;;;0.80;;
13967;SDS011;39536;52.198;9.920;2022-12-31T14:24:56;2.00;;;0.70;;
13967;SDS011;39536;52.198;9.920;2022-12-31T14:27:27;1.33;;;0.53;;
13967;SDS011;39536;52.198;9.920;2022-12-31T14:29:57;1.13;;;0.70;;
13967;SDS011;39536;52.198;9.920;2022-12-31T14:35:31;0.60;;;0.60;;
13967;SDS011;39536;52.198;9.920;2022-12-31T14:38:06;1.00;;;0.60;;
13967;SDS011;39536;52.198;9.920;2022-12-31T14:40:44;0.73;;;0.73;;
13967;SDS011;39536;52.198;9.920;2022-12-31T14:43:21;0.50;;;0.50;;
13967;SDS011;39536;52.198;9.920;2022-12-31T14:45:59;1.90;;;0.73;;
13967;SDS011;39536;52.198;9.920;2022-12-31T14:48:36;1.13;;;0.60;;
13967;SDS011;39536;52.198;9.920;2022-12-31T14:51:12;1.80;;;0.80;;
13967;SDS011;39536;52.198;9.920;2022-12-31T14:53:43;2.17;;;0.80;;
13967;SDS011;39536;52.198;9.920;2022-12-31T14:56:28;1.53;;;0.87;;
13967;SDS011;39536;52.198;9.920;2022-12-31T14:58:58;4.90;;;0.80;;
13967;SDS011;39536;52.198;9.920;2022-12-31T15:01:27;0.77;;;0.77;;
13967;SDS011;39536;52.198;9.920;2022-12-31T15:03:55;1.67;;;0.63;;
13967;SDS011;39536;52.198;9.920;2022-12-31T15:09:27;0.87;;;0.80;;
13967;SDS011;39536;52.198;9.920;2022-12-31T15:12:16;2.73;;;1.30;;
13967;SDS011;39536;52.198;9.920;2022-12-31T15:18:09;1.90;;;1.00;;
13967;SDS011;39536;52.198;9.920;2022-12-31T15:20:52;1.83;;;0.80;;
13967;SDS011;39536;52.198;9.920;2022-12-31T15:23:36;0.60;;;0.60;;
13967;SDS011;39536;52.198;9.920;2022-12-31T15:26:06;1.03;;;0.80;;
13967;SDS011;39536;52.198;9.920;2022-12-31T15:28:53;0.87;;;0.83;;
13967;SDS011;39536;52.198;9.920;2022-12-31T15:31:22;1.20;;;0.73;;
13967;SDS011;39536;52.198;9.920;2022-12-31T15:33:55;0.83;;;0.70;;
13967;SDS011;39536;52.198;9.920;2022-12-31T15:36:24;1.37;;;0.80;;
13967;SDS011;39536;52.198;9.920;2022-12-31T15:39:02;1.53;;;0.90;;
13967;SDS011;39536;52.198;9.920;2022-12-31T15:41:36;1.27;;;0.80;;
13967;SDS011;39536;52.198;9.920;2022-12-31T15:44:07;1.10;;;0.70;;
13967;SDS011;39536;52.198;9.920;2022-12-31T15:46:45;1.17;;;1.00;;
13967;SDS011;39536;52.198;9.920;2022-12-31T15:49:17;0.67;;;0.67;;
13967;SDS011;39536;52.198;9.920;2022-12-31T15:51:48;1.13;;;0.90;;
13967;SDS011;39536;52.198;9.920;2022-12-31T15:54:20;2.10;;;1.10;;
13967;SDS011;39536;52.198;9.920;2022-12-31T15:56:49;4.80;;;1.20;;
13967;SDS011;39536;52.198;9.920;2022-12-31T15:59:18;1.63;;;0.80;;
13967;SDS011;39536;52.198;9.920;2022-12-31T16:01:46;2.37;;;1.00;;
13967;SDS011;39536;52.198;9.920;2022-12-31T16:04:14;1.50;;;1.03;;
13967;SDS011;39536;52.198;9.920;2022-12-31T16:06:45;1.13;;;0.80;;
13967;SDS011;39536;52.198;9.920;2022-12-31T16:09:17;1.70;;;0.67;;
13967;SDS011;39536;52.198;9.920;2022-12-31T16:11:46;2.40;;;1.00;;